createdAt,value
2018-02-11T00:02:06.163Z,57.62
2018-02-11T00:04:33.712Z,74.95
2018-02-11T00:07:01.210Z,66.00
2018-02-11T00:09:28.734Z,81.57
2018-02-11T00:11:56.242Z,76.68
2018-02-11T00:14:23.738Z,72.75
2018-02-11T00:16:51.255Z,77.82
2018-02-11T00:19:18.753Z,80.57
2018-02-11T00:21:46.390Z,72.30
2018-02-11T00:24:13.887Z,71.43
2018-02-11T00:26:41.436Z,72.00
2018-02-11T00:29:08.969Z,88.90
2018-02-11T00:31:36.479Z,65.97
2018-02-11T00:34:04.756Z,68.82
2018-02-11T00:36:32.326Z,73.32
2018-02-11T00:38:59.809Z,67.45
2018-02-11T00:41:27.321Z,68.95
2018-02-11T00:43:54.887Z,66.90
2018-02-11T00:46:23.164Z,60.78
2018-02-11T00:48:51.452Z,70.07
2018-02-11T00:51:19.727Z,69.40
2018-02-11T00:53:47.998Z,69.65
2018-02-11T00:56:16.274Z,72.93
2018-02-11T00:58:44.560Z,70.72
2018-02-11T01:01:12.849Z,83.70
2018-02-11T01:03:40.361Z,65.25
2018-02-11T01:06:07.869Z,69.60
2018-02-11T01:08:35.378Z,80.32
2018-02-11T01:11:02.931Z,75.00
2018-02-11T01:13:30.437Z,67.40
2018-02-11T01:15:58.733Z,59.53
2018-02-11T01:18:26.256Z,75.32
2018-02-11T01:20:54.530Z,57.92
2018-02-11T01:23:22.063Z,68.75
2018-02-11T01:25:49.768Z,55.35
2018-02-11T01:28:17.287Z,76.68
2018-02-11T01:30:44.787Z,51.53
2018-02-11T01:33:13.086Z,64.65
2018-02-11T01:35:40.606Z,64.62
2018-02-11T01:38:08.109Z,60.40
2018-02-11T01:40:35.627Z,71.87
2018-02-11T01:43:03.185Z,70.45
2018-02-11T01:45:30.687Z,77.00
2018-02-11T01:47:58.307Z,61.55
2018-02-11T01:50:25.821Z,77.03
2018-02-11T01:52:53.408Z,67.22
2018-02-11T01:55:20.924Z,65.72
2018-02-11T01:57:48.448Z,61.42
2018-02-11T02:00:16.747Z,65.22
2018-02-11T02:02:44.283Z,72.80
2018-02-11T02:05:11.799Z,65.35
2018-02-11T02:07:39.315Z,46.97
2018-02-11T02:10:07.586Z,59.60
2018-02-11T02:12:35.878Z,62.33
2018-02-11T02:15:04.153Z,57.47
2018-02-11T02:17:32.426Z,68.87
2018-02-11T02:20:00.706Z,57.90
2018-02-11T02:22:28.228Z,62.65
2018-02-11T02:24:55.728Z,63.33
2018-02-11T02:27:23.253Z,60.67
2018-02-11T02:29:50.757Z,56.53
2018-02-11T02:32:18.261Z,61.35
2018-02-11T02:34:45.763Z,59.85
2018-02-11T02:37:13.303Z,62.28
2018-02-11T02:39:41.683Z,53.45
2018-02-11T02:42:09.190Z,52.62
2018-02-11T02:44:36.708Z,56.72
2018-02-11T02:47:04.997Z,60.80
2018-02-11T02:49:32.525Z,36.03
2018-02-11T02:52:00.036Z,55.55
2018-02-11T02:54:27.559Z,57.33
2018-02-11T02:56:55.837Z,65.95
2018-02-11T02:59:24.171Z,71.97
2018-02-11T03:01:51.710Z,69.78
2018-02-11T03:04:19.231Z,63.70
2018-02-11T03:06:47.493Z,58.92
2018-02-11T03:09:15.021Z,57.88
2018-02-11T03:11:42.562Z,62.13
2018-02-11T03:14:10.069Z,68.80
2018-02-11T03:16:37.587Z,61.78
2018-02-11T03:19:05.087Z,69.93
2018-02-11T03:21:32.580Z,67.25
2018-02-11T03:24:00.101Z,60.72
2018-02-11T03:26:27.649Z,64.82
2018-02-11T03:28:55.183Z,64.35
2018-02-11T03:31:22.696Z,70.30
2018-02-11T03:33:50.202Z,70.25
2018-02-11T03:36:17.719Z,71.65
2018-02-11T03:38:45.244Z,67.53
2018-02-11T03:41:12.769Z,53.03
2018-02-11T03:43:40.287Z,63.50
2018-02-11T03:46:07.783Z,56.25
2018-02-11T03:48:35.311Z,51.97
2018-02-11T03:51:03.598Z,65.85
2018-02-11T03:53:31.884Z,60.72
2018-02-11T03:56:00.175Z,68.15
2018-02-11T03:58:27.712Z,58.03
2018-02-11T04:00:55.227Z,66.80
2018-02-11T04:03:22.746Z,64.62
2018-02-11T04:05:50.276Z,60.25
2018-02-11T04:08:17.789Z,60.47
2018-02-11T04:10:45.300Z,70.62
2018-02-11T04:13:13.580Z,67.60
2018-02-11T04:15:41.899Z,56.28
2018-02-11T04:18:09.399Z,64.78
2018-02-11T04:20:37.014Z,61.83
2018-02-11T04:23:04.570Z,63.15
2018-02-11T04:25:32.105Z,59.22
2018-02-11T04:28:00.396Z,60.20
2018-02-11T04:30:27.897Z,57.08
2018-02-11T04:32:55.410Z,56.55
2018-02-11T04:35:22.929Z,53.15
2018-02-11T04:37:50.495Z,59.40
2018-02-11T04:40:18.011Z,64.12
2018-02-11T04:42:45.531Z,59.22
2018-02-11T04:45:13.810Z,39.80
2018-02-11T04:47:42.096Z,54.78
2018-02-11T04:50:10.372Z,61.10
2018-02-11T04:52:38.654Z,58.03
2018-02-11T04:55:06.922Z,62.05
2018-02-11T04:57:35.215Z,54.80
2018-02-11T05:00:02.770Z,55.20
2018-02-11T05:02:30.288Z,51.95
2018-02-11T05:04:57.790Z,50.88
2018-02-11T05:07:25.351Z,58.60
2018-02-11T05:09:52.865Z,54.45
2018-02-11T05:12:20.394Z,50.22
2018-02-11T05:14:47.912Z,63.15
2018-02-11T05:17:15.443Z,55.47
2018-02-11T05:19:42.954Z,59.38
2018-02-11T05:22:10.462Z,62.33
2018-02-11T05:24:37.973Z,58.15
2018-02-11T05:27:05.560Z,64.62
2018-02-11T05:29:33.076Z,62.65
2018-02-11T05:32:00.589Z,59.70
2018-02-11T05:34:28.204Z,53.17
2018-02-11T05:36:55.699Z,46.40
2018-02-11T05:39:23.206Z,61.90
2018-02-11T05:41:51.492Z,57.50
2018-02-11T05:44:19.779Z,58.22
2018-02-11T05:46:47.282Z,47.45
2018-02-11T05:49:14.793Z,60.25
2018-02-11T05:51:42.307Z,54.75
2018-02-11T05:54:09.807Z,53.35
2018-02-11T05:56:38.081Z,60.63
2018-02-11T05:59:06.348Z,55.45
2018-02-11T06:01:34.624Z,57.83
2018-02-11T06:04:02.912Z,59.85
2018-02-11T06:06:31.198Z,59.90
2018-02-11T06:08:58.709Z,52.97
2018-02-11T06:11:26.315Z,53.35
2018-02-11T06:13:53.821Z,57.83
2018-02-11T06:16:21.338Z,59.90
2018-02-11T06:18:48.862Z,61.13
2018-02-11T06:21:16.370Z,45.60
2018-02-11T06:23:43.872Z,57.22
2018-02-11T06:26:11.398Z,51.33
2018-02-11T06:28:38.902Z,61.03
2018-02-11T06:31:06.431Z,53.35
2018-02-11T06:33:34.050Z,60.03
2018-02-11T06:36:01.568Z,60.10
2018-02-11T06:38:29.081Z,48.42
2018-02-11T06:40:56.593Z,46.33
2018-02-11T06:43:24.097Z,50.17
2018-02-11T06:45:51.635Z,48.20
2018-02-11T06:48:19.147Z,46.28
2018-02-11T06:50:46.679Z,58.28
2018-02-11T06:53:14.186Z,61.00
2018-02-11T06:55:41.695Z,57.92
2018-02-11T06:58:09.218Z,45.15
2018-02-11T07:00:36.743Z,46.80
2018-02-11T07:03:04.278Z,26.33
2018-02-11T07:05:31.825Z,49.40
2018-02-11T07:07:59.343Z,54.95
2018-02-11T07:10:26.903Z,52.55
2018-02-11T07:12:54.780Z,48.38
2018-02-11T07:15:22.318Z,50.35
2018-02-11T07:17:49.887Z,49.88
2018-02-11T07:20:17.515Z,51.78
2018-02-11T07:22:45.033Z,44.17
2018-02-11T07:25:13.316Z,39.45
2018-02-11T07:27:41.624Z,36.65
2018-02-11T07:30:09.139Z,40.15
2018-02-11T07:32:37.431Z,41.70
2018-02-11T07:35:04.952Z,38.90
2018-02-11T07:37:33.306Z,43.30
2018-02-11T07:40:00.804Z,40.50
2018-02-11T07:42:28.326Z,35.30
2018-02-11T07:44:55.821Z,37.75
2018-02-11T07:47:23.452Z,32.08
2018-02-11T07:49:50.986Z,29.85
2018-02-11T07:52:18.486Z,39.13
2018-02-11T07:54:45.999Z,33.25
2018-02-11T07:57:13.605Z,25.12
2018-02-11T07:59:41.118Z,18.52
2018-02-11T08:02:08.641Z,34.60
2018-02-11T08:04:36.171Z,27.92
2018-02-11T08:07:03.725Z,37.10
2018-02-11T08:09:31.253Z,24.80
2018-02-11T08:11:58.793Z,32.78
2018-02-11T08:14:26.334Z,24.27
2018-02-11T08:16:53.866Z,23.90
2018-02-11T08:19:21.374Z,23.67
2018-02-11T08:21:48.928Z,31.42
2018-02-11T08:24:16.454Z,19.83
2018-02-11T08:26:43.979Z,23.67
2018-02-11T08:29:11.494Z,21.35
2018-02-11T08:31:39.063Z,21.33
2018-02-11T08:34:06.630Z,20.83
2018-02-11T08:36:34.904Z,21.52
2018-02-11T08:39:02.447Z,26.27
2018-02-11T08:41:29.981Z,18.30
2018-02-11T08:43:57.484Z,20.88
2018-02-11T08:46:25.768Z,23.48
2018-02-11T08:48:54.047Z,21.33
2018-02-11T08:51:22.338Z,18.52
2018-02-11T08:53:49.866Z,16.98
2018-02-11T08:56:18.164Z,23.05
2018-02-11T08:58:45.685Z,21.10
2018-02-11T09:01:13.248Z,13.55
2018-02-11T09:03:40.802Z,20.90
2018-02-11T09:06:08.337Z,21.75
2018-02-11T09:08:35.876Z,26.35
2018-02-11T09:11:03.441Z,16.27
2018-02-11T09:13:31.135Z,15.80
2018-02-11T09:15:58.660Z,39.00
2018-02-11T09:18:26.196Z,17.67
2018-02-11T09:20:53.732Z,13.77
2018-02-11T09:23:21.245Z,19.55
2018-02-11T09:25:48.862Z,20.62
2018-02-11T09:28:16.367Z,20.05
2018-02-11T09:30:43.900Z,22.67
2018-02-11T09:33:12.252Z,28.55
2018-02-11T09:35:40.587Z,18.05
2018-02-11T09:38:09.253Z,14.73
2018-02-11T09:40:36.792Z,15.52
2018-02-11T09:43:04.330Z,17.73
2018-02-11T09:45:32.632Z,19.15
2018-02-11T09:48:00.951Z,17.73
2018-02-11T09:50:28.481Z,14.63
2018-02-11T09:52:55.987Z,10.73
2018-02-11T09:55:23.510Z,15.43
2018-02-11T09:57:51.038Z,17.80
2018-02-11T10:00:18.582Z,14.32
2018-02-11T10:02:46.167Z,18.60
2018-02-11T10:05:13.693Z,13.15
2018-02-11T10:07:41.203Z,22.10
2018-02-11T10:10:08.756Z,13.00
2018-02-11T10:12:36.362Z,14.05
2018-02-11T10:15:03.877Z,11.48
2018-02-11T10:17:31.417Z,15.95
2018-02-11T10:19:59.829Z,15.20
2018-02-11T10:22:27.374Z,12.68
2018-02-11T10:24:55.668Z,13.48
2018-02-11T10:27:23.192Z,11.32
2018-02-11T10:29:50.723Z,13.32
2018-02-11T10:32:18.305Z,15.05
2018-02-11T10:34:45.814Z,13.52
2018-02-11T10:37:13.380Z,9.40
2018-02-11T10:39:40.918Z,14.27
2018-02-11T10:42:08.441Z,9.38
2018-02-11T10:44:36.006Z,15.60
2018-02-11T10:47:03.602Z,11.82
2018-02-11T10:49:31.356Z,16.10
2018-02-11T10:51:59.019Z,12.57
2018-02-11T10:54:26.644Z,8.55
2018-02-11T10:56:54.163Z,13.00
2018-02-11T10:59:21.711Z,13.10
2018-02-11T11:01:49.238Z,12.52
2018-02-11T11:04:16.738Z,15.10
2018-02-11T11:06:44.245Z,11.27
2018-02-11T11:09:11.762Z,14.45
2018-02-11T11:11:39.326Z,13.15
2018-02-11T11:14:06.845Z,9.60
2018-02-11T11:16:35.183Z,15.27
2018-02-11T11:19:02.666Z,8.70
2018-02-11T11:21:30.158Z,7.75
2018-02-11T11:23:57.673Z,9.88
2018-02-11T11:26:25.167Z,10.75
2018-02-11T11:28:53.439Z,13.07
2018-02-11T11:31:21.727Z,11.57
2018-02-11T11:33:50.020Z,11.90
2018-02-11T11:36:17.547Z,13.90
2018-02-11T11:38:45.880Z,15.82
2018-02-11T11:41:13.385Z,12.90
2018-02-11T11:43:41.660Z,12.68
2018-02-11T11:46:09.962Z,13.85
2018-02-11T11:48:37.486Z,12.80
2018-02-11T11:51:05.023Z,13.73
2018-02-11T11:53:32.543Z,10.35
2018-02-11T11:56:00.058Z,15.05
2018-02-11T11:58:27.577Z,13.48
2018-02-11T12:00:55.114Z,13.88
2018-02-11T12:03:23.402Z,14.70
2018-02-11T12:05:50.939Z,13.15
2018-02-11T12:08:18.462Z,18.10
2018-02-11T12:10:45.971Z,11.25
2018-02-11T12:13:14.246Z,13.70
2018-02-11T12:15:41.768Z,10.82
2018-02-11T12:18:09.281Z,13.50
2018-02-11T12:20:36.793Z,12.20
2018-02-11T12:23:04.317Z,13.20
2018-02-11T12:25:32.680Z,15.07
2018-02-11T12:28:00.208Z,11.40
2018-02-11T12:30:28.537Z,13.07
2018-02-11T12:32:56.047Z,11.35
2018-02-11T12:35:23.550Z,12.85
2018-02-11T12:37:51.087Z,10.70
2018-02-11T12:40:18.666Z,12.70
2018-02-11T12:42:46.178Z,12.60
2018-02-11T12:45:14.468Z,11.32
2018-02-11T12:47:42.748Z,13.25
2018-02-11T12:50:11.039Z,16.85
2018-02-11T12:52:38.579Z,12.68
2018-02-11T12:55:06.191Z,12.30
2018-02-11T12:57:33.690Z,11.52
2018-02-11T13:00:01.216Z,14.65
2018-02-11T13:02:28.783Z,13.05
2018-02-11T13:04:56.365Z,13.05
2018-02-11T13:07:23.888Z,16.58
2018-02-11T13:09:51.409Z,8.32
2018-02-11T13:12:18.905Z,6.57
2018-02-11T13:14:46.406Z,12.93
2018-02-11T13:17:14.698Z,11.40
2018-02-11T13:19:42.972Z,13.98
2018-02-11T13:22:11.256Z,17.35
2018-02-11T13:24:39.542Z,15.27
2018-02-11T13:27:07.049Z,10.32
2018-02-11T13:29:34.587Z,16.00
2018-02-11T13:32:02.106Z,12.75
2018-02-11T13:34:30.398Z,16.70
2018-02-11T13:36:57.965Z,16.12
2018-02-11T13:39:28.062Z,14.65
2018-02-11T13:41:55.562Z,9.38
2018-02-11T13:44:23.080Z,14.48
2018-02-11T13:46:51.381Z,14.43
2018-02-11T13:49:18.905Z,11.10
2018-02-11T13:51:46.425Z,11.02
2018-02-11T13:54:13.965Z,16.00
2018-02-11T13:56:41.473Z,13.07
2018-02-11T13:59:09.019Z,16.87
2018-02-11T14:01:36.569Z,15.18
2018-02-11T14:04:04.097Z,15.50
2018-02-11T14:06:31.613Z,12.40
2018-02-11T14:08:59.134Z,14.63
2018-02-11T14:11:26.669Z,16.50
2018-02-11T14:13:54.223Z,13.93
2018-02-11T14:16:21.738Z,13.32
2018-02-11T14:18:50.795Z,13.27
2018-02-11T14:21:18.449Z,16.65
2018-02-11T14:23:45.942Z,12.50
2018-02-11T14:26:13.474Z,15.05
2018-02-11T14:28:40.992Z,16.65
2018-02-11T14:31:09.371Z,13.27
2018-02-11T14:33:36.891Z,14.60
2018-02-11T14:36:04.484Z,16.85
2018-02-11T14:52:29.146Z,25.85
2018-02-11T14:54:56.721Z,15.85
2018-02-11T14:57:24.231Z,13.40
2018-02-11T14:59:51.847Z,12.52
2018-02-11T15:02:19.379Z,15.27
2018-02-11T15:04:46.911Z,15.43
2018-02-11T15:07:14.435Z,11.82
2018-02-11T15:09:41.955Z,14.30
2018-02-11T15:12:09.494Z,13.55
2018-02-11T15:14:37.000Z,17.35
2018-02-11T15:17:04.508Z,16.87
2018-02-11T15:19:32.009Z,15.73
2018-02-11T15:21:59.534Z,15.55
2018-02-11T15:24:27.067Z,17.62
2018-02-11T15:26:55.354Z,16.55
2018-02-11T15:29:23.639Z,13.65
2018-02-11T15:31:51.155Z,16.60
2018-02-11T15:34:18.679Z,9.27
2018-02-11T15:36:46.197Z,17.98
2018-02-11T15:39:13.722Z,18.35
2018-02-11T15:41:41.252Z,18.55
2018-02-11T15:44:08.819Z,18.00
2018-02-11T15:46:36.349Z,25.48
2018-02-11T15:49:03.861Z,17.85
2018-02-11T15:51:31.386Z,16.95
2018-02-11T15:53:58.904Z,17.20
2018-02-11T15:56:26.426Z,10.20
2018-02-11T15:58:53.939Z,18.20
2018-02-11T16:01:22.246Z,15.13
2018-02-11T16:03:49.874Z,20.95
2018-02-11T16:06:18.178Z,19.90
2018-02-11T16:08:45.677Z,16.10
2018-02-11T16:11:13.200Z,10.55
2018-02-11T16:13:40.813Z,16.30
2018-02-11T16:16:08.330Z,13.73
2018-02-11T16:18:35.878Z,15.57
2018-02-11T16:21:03.427Z,11.80
2018-02-11T16:23:30.946Z,19.75
2018-02-11T16:25:58.473Z,18.70
2018-02-11T16:28:26.053Z,14.77
2018-02-11T16:30:53.577Z,11.80
2018-02-11T16:33:21.210Z,15.38
2018-02-11T16:35:48.838Z,14.00
2018-02-11T16:38:16.331Z,12.48
2018-02-11T16:40:44.608Z,16.17
2018-02-11T16:43:14.146Z,16.00
2018-02-11T16:45:41.653Z,16.70
2018-02-11T16:48:09.172Z,15.38
2018-02-11T16:50:36.710Z,13.75
2018-02-11T16:53:04.353Z,13.05
2018-02-11T16:55:32.658Z,13.32
2018-02-11T16:58:00.199Z,13.98
2018-02-11T17:00:27.736Z,14.85
2018-02-11T17:02:55.262Z,13.05
2018-02-11T17:05:22.771Z,9.00
2018-02-11T17:07:50.910Z,21.67
2018-02-11T17:10:18.443Z,13.15
2018-02-11T17:12:45.981Z,14.27
2018-02-11T17:15:13.588Z,15.07
2018-02-11T17:17:41.112Z,14.95
2018-02-11T17:20:08.678Z,13.00
2018-02-11T17:22:36.176Z,11.00
2018-02-11T17:25:03.689Z,12.70
2018-02-11T17:27:31.206Z,12.37
2018-02-11T17:29:58.756Z,13.23
2018-02-11T17:32:26.275Z,19.02
2018-02-11T17:34:54.052Z,9.50
2018-02-11T17:37:21.639Z,11.82
2018-02-11T17:39:49.187Z,13.05
2018-02-11T17:42:16.833Z,13.38
2018-02-11T17:44:44.375Z,12.68
2018-02-11T17:53:56.057Z,11.88
2018-02-11T17:56:23.675Z,11.00
2018-02-11T17:58:51.392Z,10.80
2018-02-11T18:01:18.918Z,16.00
2018-02-11T18:03:46.464Z,11.43
2018-02-11T18:06:14.050Z,12.77
2018-02-11T18:08:41.604Z,11.35
2018-02-11T18:11:09.143Z,11.02
2018-02-11T18:13:36.722Z,11.55
2018-02-11T18:16:04.248Z,11.82
2018-02-11T18:18:31.763Z,11.68
2018-02-11T18:20:59.296Z,11.40
2018-02-11T18:23:26.825Z,9.30
2018-02-11T18:25:54.374Z,10.70
2018-02-11T18:28:22.658Z,9.75
2018-02-11T18:30:50.982Z,10.07
2018-02-11T18:33:19.242Z,14.00
2018-02-11T18:35:46.832Z,10.63
2018-02-11T18:38:14.375Z,9.70
2018-02-11T18:40:41.943Z,10.82
2018-02-11T18:43:09.530Z,10.32
2018-02-11T18:45:37.058Z,9.77
2018-02-11T18:48:04.566Z,9.27
2018-02-11T18:50:32.867Z,10.00
2018-02-11T18:53:00.378Z,9.38
2018-02-11T18:55:28.357Z,8.27
2018-02-11T18:57:57.471Z,10.05
2018-02-11T19:00:25.787Z,9.45
2018-02-11T19:02:53.312Z,171.45
2018-02-11T19:05:20.835Z,12.77
2018-02-11T19:07:48.383Z,9.93
2018-02-11T19:10:15.936Z,8.40
2018-02-11T19:12:43.502Z,9.57
2018-02-11T19:15:11.217Z,11.25
2018-02-11T19:17:38.947Z,10.52
2018-02-11T19:20:06.584Z,13.75
2018-02-11T19:22:34.150Z,11.77
2018-02-11T19:25:01.718Z,9.80
2018-02-11T19:27:29.245Z,7.78
2018-02-11T19:29:56.777Z,8.77
2018-02-11T19:32:24.439Z,8.88
2018-02-11T19:34:52.008Z,10.13
2018-02-11T19:37:20.189Z,7.35
2018-02-11T19:39:49.293Z,10.27
2018-02-11T19:42:21.302Z,6.22
2018-02-11T19:44:51.938Z,7.40
2018-02-11T19:47:20.663Z,6.22
2018-02-11T19:49:50.643Z,8.75
2018-02-11T19:52:24.323Z,7.00
2018-02-11T19:54:54.198Z,10.30
2018-02-11T19:57:22.418Z,10.40
2018-02-11T19:59:50.377Z,10.45
2018-02-11T20:02:18.287Z,9.88
2018-02-11T20:22:05.148Z,7.60
2018-02-11T20:24:32.758Z,9.80
2018-02-11T20:27:00.326Z,7.62
2018-02-11T20:29:27.906Z,11.27
2018-02-11T20:31:55.523Z,9.68
2018-02-11T20:34:23.104Z,8.82
2018-02-11T20:36:50.762Z,9.50
2018-02-11T20:39:18.344Z,8.80
2018-02-11T20:41:45.928Z,9.27
2018-02-11T20:44:14.247Z,8.70
2018-02-11T20:46:41.756Z,9.27
2018-02-11T20:49:10.586Z,8.80
2018-02-11T20:51:38.106Z,8.35
2018-02-11T20:54:05.637Z,9.20
2018-02-11T20:56:33.164Z,8.68
2018-02-11T20:59:00.682Z,6.37
2018-02-11T21:01:28.188Z,22.77
2018-02-11T21:03:55.706Z,9.68
2018-02-11T21:06:23.988Z,11.02
2018-02-11T21:08:52.325Z,11.55
2018-02-11T21:11:19.859Z,10.27
2018-02-11T21:13:47.359Z,7.35
2018-02-11T21:16:14.892Z,9.85
2018-02-11T21:18:42.434Z,12.57
2018-02-11T21:21:09.963Z,8.93
2018-02-11T21:23:38.256Z,10.52
2018-02-11T21:26:05.766Z,7.72
2018-02-11T21:28:33.306Z,8.90
2018-02-11T21:31:00.820Z,10.77
2018-02-11T21:33:29.220Z,9.05
2018-02-11T21:35:56.764Z,8.27
2018-02-11T21:38:25.055Z,11.25
2018-02-11T21:40:52.573Z,8.75
2018-02-11T21:43:20.074Z,9.18
2018-02-11T21:45:47.621Z,11.43
2018-02-11T21:48:15.118Z,8.63
2018-02-11T21:50:42.607Z,9.32
2018-02-11T21:53:10.150Z,9.13
2018-02-11T21:55:37.695Z,11.35
2018-02-11T21:58:05.218Z,10.48
2018-02-11T22:00:32.729Z,9.20
2018-02-11T22:03:00.248Z,9.25
2018-02-11T22:05:27.798Z,10.98
2018-02-11T22:07:55.291Z,14.15
2018-02-11T22:10:22.897Z,8.40
2018-02-11T22:12:50.442Z,14.07
2018-02-11T22:15:17.965Z,10.23
2018-02-11T22:17:45.462Z,9.93
2018-02-11T22:20:12.985Z,10.10
2018-02-11T22:22:40.531Z,11.43
2018-02-11T22:25:08.055Z,10.60
2018-02-11T22:27:35.551Z,12.23
2018-02-11T22:30:03.108Z,10.82
2018-02-11T22:32:30.709Z,9.70
2018-02-11T22:34:58.242Z,12.98
2018-02-11T22:37:25.758Z,8.43
2018-02-11T22:39:53.281Z,12.05
2018-02-11T22:42:20.802Z,9.05
2018-02-11T22:44:48.321Z,14.07
2018-02-11T22:47:15.828Z,7.55
2018-02-11T22:49:43.393Z,11.05
2018-02-11T22:52:10.909Z,10.10
2018-02-11T22:54:38.424Z,10.18
2018-02-11T22:57:06.001Z,9.02
2018-02-11T22:59:33.517Z,6.60
2018-02-11T23:02:01.049Z,9.50
2018-02-11T23:04:29.311Z,10.95
2018-02-11T23:06:56.822Z,9.93
2018-02-11T23:09:24.315Z,11.35
2018-02-11T23:11:51.817Z,9.27
2018-02-11T23:14:19.438Z,9.88
2018-02-11T23:16:46.947Z,9.70
2018-02-11T23:19:14.526Z,9.48
2018-02-11T23:21:42.039Z,11.77
2018-02-11T23:24:09.547Z,9.45
2018-02-11T23:26:37.043Z,8.82
2018-02-11T23:29:04.566Z,9.90
2018-02-11T23:31:32.067Z,10.32
2018-02-11T23:33:59.570Z,10.38
2018-02-11T23:36:27.078Z,10.85
2018-02-11T23:38:54.568Z,8.55
2018-02-11T23:41:22.102Z,10.70
2018-02-11T23:43:49.602Z,9.82
2018-02-11T23:46:17.115Z,9.73
2018-02-11T23:48:44.615Z,9.48
2018-02-11T23:51:12.116Z,11.18
2018-02-11T23:53:39.633Z,10.80
2018-02-11T23:56:07.147Z,11.50
2018-02-11T23:58:34.636Z,12.40
